Time;durP1;ratioP1;P1;durP2;ratioP2;P2;SDS_P1;SDS_P2;PMS_P1;PMS_P2;Temp;Humidity;BMP_temperature;BMP_pressure;BME280_temperature;BME280_humidity;BME280_pressure;Samples;Min_cycle;Max_cycle;Signal;HPM_P1;HPM_P2
2022/06/01 00:01:37;;;;;;;5.57;3.57;;;10.10;99.90;10.00;100292.00;;;;4955764;28;111262;-71
2022/06/01 00:04:03;;;;;;;7.17;3.03;;;10.00;99.90;10.00;100303.00;;;;4954779;28;108130;-72
2022/06/01 00:06:28;;;;;;;5.23;3.30;;;10.00;99.90;9.90;100301.00;;;;4955190;28;89936;-72
2022/06/01 00:08:54;;;;;;;4.10;3.13;;;10.00;99.90;9.90;100303.00;;;;4954740;28;117405;-73
2022/06/01 00:11:20;;;;;;;4.70;3.43;;;10.00;99.90;9.90;100307.00;;;;4955023;28;92724;-73
2022/06/01 00:13:46;;;;;;;4.17;3.47;;;9.90;99.90;9.90;100312.00;;;;4971050;28;93585;-74
2022/06/01 00:16:11;;;;;;;4.57;3.20;;;9.90;99.90;9.80;100304.00;;;;4955053;28;88203;-75
2022/06/01 00:18:49;;;;;;;4.83;3.77;;;9.90;99.90;9.70;100301.00;;;;4969844;28;88874;-75
2022/06/01 00:21:15;;;;;;;3.13;2.90;;;9.80;99.90;9.70;100304.00;;;;4969906;28;108672;-75
2022/06/01 00:23:41;;;;;;;4.03;3.33;;;9.80;99.90;9.70;100298.00;;;;4952889;28;110638;-75
2022/06/01 00:26:06;;;;;;;3.87;2.87;;;9.70;99.90;9.60;100299.00;;;;4964654;28;118265;-76
2022/06/01 00:28:33;;;;;;;4.63;3.83;;;9.70;99.90;9.60;100304.00;;;;4932382;28;117041;-75
2022/06/01 00:30:59;;;;;;;4.30;3.77;;;9.70;99.90;9.60;100296.00;;;;4933667;28;87848;-75
2022/06/01 00:33:25;;;;;;;5.00;3.73;;;9.60;99.90;9.60;100305.00;;;;4951357;28;87935;-75
2022/06/01 00:35:51;;;;;;;3.73;3.40;;;9.60;99.90;9.50;100311.00;;;;4917746;28;89778;-75
2022/06/01 00:38:17;;;;;;;5.10;3.87;;;9.60;99.90;9.50;100307.00;;;;4934511;28;116241;-75
2022/06/01 00:40:43;;;;;;;4.93;4.40;;;9.60;99.90;9.50;100307.00;;;;4960023;28;87908;-76
2022/06/01 00:43:37;;;;;;;5.10;4.30;;;9.50;99.90;9.40;100305.00;;;;4931628;28;107680;-75
2022/06/01 00:46:03;;;;;;;5.57;4.30;;;9.50;99.90;9.40;100310.00;;;;4943554;28;106933;-75
2022/06/01 00:48:32;;;;;;;7.00;5.20;;;9.50;99.90;9.40;100306.00;;;;4940709;28;117489;-75
2022/06/01 00:50:58;;;;;;;4.17;3.77;;;9.40;99.90;9.40;100301.00;;;;4935328;28;109505;-76
2022/06/01 00:53:29;;;;;;;5.40;4.20;;;9.40;99.90;9.30;100314.00;;;;4952133;28;109063;-75
2022/06/01 00:56:01;;;;;;;6.27;3.63;;;9.40;99.90;9.30;100317.00;;;;4940258;28;88746;-77
2022/06/01 00:58:32;;;;;;;5.07;4.57;;;9.30;99.90;9.30;100295.00;;;;4908224;28;107366;-76
2022/06/01 01:00:58;;;;;;;6.20;4.97;;;9.30;99.90;9.30;100296.00;;;;4930434;28;92456;-75
2022/06/01 01:03:29;;;;;;;7.30;4.60;;;9.30;99.90;9.30;100307.00;;;;4913989;28;87773;-76
2022/06/01 01:06:14;;;;;;;7.07;4.00;;;9.40;99.90;9.30;100305.00;;;;4928055;28;96767;-76
2022/06/01 01:08:42;;;;;;;7.37;5.10;;;9.40;99.90;9.40;100312.00;;;;4896945;28;90246;-76
2022/06/01 01:11:13;;;;;;;5.27;4.33;;;9.50;99.90;9.50;100316.00;;;;4946860;28;87645;-76
2022/06/01 01:13:45;;;;;;;6.03;4.83;;;9.50;99.90;9.60;100318.00;;;;4935103;28;87925;-77
2022/06/01 01:16:11;;;;;;;5.23;4.40;;;9.60;99.90;9.60;100332.00;;;;4948708;28;111884;-76
2022/06/01 01:18:41;;;;;;;6.07;5.00;;;9.60;99.90;9.70;100333.00;;;;4948994;28;93313;-77
2022/06/01 01:21:52;;;;;;;7.53;6.83;;;9.70;99.90;9.70;100330.00;;;;4955632;28;88028;-75
2022/06/01 01:25:09;;;;;;;7.27;6.50;;;9.70;99.90;9.70;100332.00;;;;4883783;28;87926;-76
2022/06/01 01:27:34;;;;;;;6.10;5.23;;;9.70;99.90;9.70;100332.00;;;;4932209;28;89907;-77
2022/06/01 01:30:00;;;;;;;7.33;4.87;;;9.70;99.90;9.70;100323.00;;;;4935355;28;116504;-77
2022/06/01 01:32:26;;;;;;;13.03;5.63;;;9.80;99.90;9.80;100325.00;;;;4935008;28;111018;-76
2022/06/01 01:34:52;;;;;;;6.67;5.83;;;9.80;99.90;9.80;100325.00;;;;4968533;28;110233;-75
2022/06/01 01:37:24;;;;;;;6.53;4.83;;;9.80;99.90;9.80;100322.00;;;;4953894;28;108969;-74
2022/06/01 01:39:53;;;;;;;7.93;5.70;;;9.80;99.90;9.80;100319.00;;;;4935566;28;108197;-75
2022/06/01 01:42:19;;;;;;;9.47;6.03;;;9.80;99.90;9.80;100324.00;;;;4953495;28;101861;-76
2022/06/01 01:45:13;;;;;;;8.83;4.73;;;9.80;99.90;9.80;100324.00;;;;4936561;28;87745;-75
2022/06/01 01:47:39;;;;;;;8.77;6.27;;;9.80;99.90;9.80;100316.00;;;;4968062;28;108010;-75
2022/06/01 01:50:09;;;;;;;7.60;5.77;;;9.80;99.90;9.80;100321.00;;;;4974434;28;95027;-75
2022/06/01 01:52:38;;;;;;;5.70;5.00;;;9.80;99.90;9.80;100326.00;;;;4965581;28;93722;-76
2022/06/01 01:55:41;;;;;;;9.30;5.63;;;9.80;99.90;9.70;100335.00;;;;4936018;28;87968;-77
2022/06/01 01:58:27;;;;;;;7.17;5.47;;;9.80;99.90;9.70;100337.00;;;;4934659;28;107460;-76
2022/06/01 02:01:00;;;;;;;9.80;6.20;;;9.80;99.90;9.70;100333.00;;;;4968249;28;106049;-77
2022/06/01 02:03:39;;;;;;;6.07;5.43;;;9.70;99.90;9.70;100336.00;;;;4951879;28;87824;-76
2022/06/01 02:06:25;;;;;;;8.27;5.60;;;9.70;99.90;9.70;100334.00;;;;4967973;28;102326;-77
2022/06/01 02:08:58;;;;;;;7.73;5.67;;;9.70;99.90;9.60;100336.00;;;;4951706;28;90325;-77
2022/06/01 02:14:53;;;;;;;7.40;5.87;;;9.60;99.90;9.40;100334.00;;;;4966709;28;87958;-77
2022/06/01 02:17:51;;;;;;;8.80;5.83;;;9.50;99.90;9.30;100325.00;;;;4951244;28;88023;-77
2022/06/01 02:20:38;;;;;;;7.73;6.40;;;9.40;99.90;9.20;100330.00;;;;4945574;28;87894;-76
2022/06/01 02:23:04;;;;;;;7.60;4.77;;;9.30;99.90;9.20;100334.00;;;;4968253;28;87761;-76
2022/06/01 02:25:30;;;;;;;6.10;5.57;;;9.20;99.90;9.10;100318.00;;;;4934919;28;104486;-77
2022/06/01 02:27:58;;;;;;;7.37;6.43;;;9.20;99.90;9.00;100320.00;;;;4922363;28;94003;-77
2022/06/01 02:30:39;;;;;;;7.13;6.10;;;9.10;99.90;9.00;100320.00;;;;4970998;28;88073;-77
2022/06/01 02:33:09;;;;;;;5.63;5.13;;;9.10;99.90;9.00;100318.00;;;;4915563;28;94992;-77
2022/06/01 02:35:39;;;;;;;10.63;6.57;;;9.00;99.90;8.90;100326.00;;;;4961930;28;89226;-77
2022/06/01 02:38:12;;;;;;;6.07;5.47;;;9.00;99.90;8.90;100325.00;;;;4969028;28;87834;-77
2022/06/01 02:40:38;;;;;;;6.17;5.57;;;8.90;99.90;8.90;100335.00;;;;4935074;28;90402;-77
2022/06/01 02:43:04;;;;;;;9.40;6.13;;;8.90;99.90;8.80;100326.00;;;;4968467;28;87965;-77
2022/06/01 02:45:30;;;;;;;8.13;6.00;;;8.90;99.90;8.80;100324.00;;;;4968629;28;86918;-77
2022/06/01 02:48:01;;;;;;;7.60;5.53;;;8.80;99.90;8.70;100320.00;;;;4953857;28;107511;-77
2022/06/01 02:50:31;;;;;;;7.77;6.00;;;8.80;99.90;8.60;100331.00;;;;4955567;28;88637;-77
2022/06/01 02:52:58;;;;;;;6.43;5.33;;;8.70;99.90;8.60;100335.00;;;;4937895;28;89778;-77
2022/06/01 02:55:25;;;;;;;9.43;6.73;;;8.70;99.90;8.60;100338.00;;;;4943959;28;87786;-77
2022/06/01 02:57:53;;;;;;;7.60;5.60;;;8.60;99.90;8.50;100338.00;;;;4951884;28;87873;-78
2022/06/01 03:00:30;;;;;;;7.53;5.77;;;8.60;99.90;8.50;100326.00;;;;4934569;28;88668;-77
2022/06/01 03:02:58;;;;;;;10.10;7.10;;;8.60;99.90;8.50;100332.00;;;;4935245;28;87868;-75
2022/06/01 03:05:33;;;;;;;7.67;6.87;;;8.60;99.90;8.50;100325.00;;;;4968383;28;87845;-75
2022/06/01 03:08:03;;;;;;;8.53;6.17;;;8.50;99.90;8.40;100324.00;;;;4935575;28;87756;-76
2022/06/01 03:10:29;;;;;;;7.53;6.43;;;8.50;99.90;8.40;100338.00;;;;4951158;28;89735;-76
2022/06/01 03:12:56;;;;;;;8.23;6.73;;;8.50;99.90;8.40;100337.00;;;;4935169;28;115430;-76
2022/06/01 03:15:23;;;;;;;6.93;4.93;;;8.50;99.90;8.40;100343.00;;;;4957138;28;88194;-76
2022/06/01 03:17:50;;;;;;;9.27;6.50;;;8.50;99.90;8.30;100336.00;;;;4936954;28;91542;-75
2022/06/01 03:20:23;;;;;;;9.70;6.23;;;8.40;99.90;8.30;100335.00;;;;4937594;28;106795;-75
2022/06/01 03:22:48;;;;;;;8.77;6.53;;;8.40;99.90;8.30;100335.00;;;;4937207;28;89964;-75
2022/06/01 03:25:19;;;;;;;8.90;6.37;;;8.40;99.90;8.30;100337.00;;;;4957525;28;87913;-74
2022/06/01 03:27:45;;;;;;;8.93;6.50;;;8.70;99.90;8.20;100331.00;;;;4937946;28;89305;-76
2022/06/01 03:30:16;;;;;;;7.47;6.10;;;8.30;99.90;8.20;100336.00;;;;4971188;28;88677;-75
2022/06/01 03:32:43;;;;;;;8.20;6.43;;;8.30;99.90;8.20;100330.00;;;;4937617;28;87822;-76
2022/06/01 03:35:09;;;;;;;6.80;6.17;;;8.30;99.90;8.20;100318.00;;;;4937375;28;94617;-76
2022/06/01 03:37:35;;;;;;;8.97;6.00;;;8.30;99.90;8.20;100323.00;;;;4969890;28;107683;-75
2022/06/01 03:40:01;;;;;;;8.33;6.33;;;8.30;99.90;8.20;100324.00;;;;4955725;28;88065;-75
2022/06/01 03:42:27;;;;;;;8.30;6.60;;;8.30;99.90;8.20;100325.00;;;;4936795;28;88874;-75
2022/06/01 03:47:38;;;;;;;12.70;8.50;;;8.30;99.90;8.30;100330.00;;;;4953038;28;87937;-75
2022/06/01 03:50:04;;;;;;;17.07;10.93;;;8.30;99.90;8.30;100335.00;;;;4948128;28;89972;-74
2022/06/01 03:52:30;;;;;;;10.13;8.97;;;8.40;99.90;8.40;100331.00;;;;4954459;28;108713;-75
2022/06/01 03:54:55;;;;;;;8.93;7.67;;;8.40;99.90;8.40;100333.00;;;;4962625;28;88061;-75
2022/06/01 03:57:21;;;;;;;11.63;8.03;;;8.50;99.90;8.40;100334.00;;;;4936878;28;108968;-74
2022/06/01 03:59:47;;;;;;;11.73;8.80;;;8.50;99.90;8.50;100341.00;;;;4955848;28;87269;-75
2022/06/01 04:02:13;;;;;;;10.63;8.23;;;8.50;99.90;8.50;100337.00;;;;4954196;28;115983;-75
2022/06/01 04:04:53;;;;;;;16.87;10.50;;;8.60;99.90;8.60;100340.00;;;;4955475;28;87958;-75
2022/06/01 04:07:19;;;;;;;14.83;9.80;;;8.60;99.90;8.70;100339.00;;;;4954035;28;108308;-75
2022/06/01 04:09:45;;;;;;;10.80;7.87;;;8.70;99.90;8.70;100341.00;;;;4954143;28;115804;-76
2022/06/01 04:12:20;;;;;;;9.47;8.13;;;8.70;99.90;8.80;100326.00;;;;4936738;28;88026;-76
2022/06/01 04:14:46;;;;;;;10.90;9.53;;;8.80;99.90;8.80;100336.00;;;;4936493;28;110305;-76
2022/06/01 04:17:11;;;;;;;11.33;9.63;;;8.80;99.90;8.90;100323.00;;;;4936364;28;109533;-75
2022/06/01 04:19:37;;;;;;;13.10;10.40;;;8.90;99.90;9.00;100334.00;;;;4936264;28;116315;-74
2022/06/01 04:22:03;;;;;;;15.93;10.13;;;9.00;99.90;9.00;100344.00;;;;4954251;28;87894;-74
2022/06/01 04:24:32;;;;;;;12.93;9.93;;;9.00;99.90;9.10;100345.00;;;;4949730;28;104097;-74
2022/06/01 04:26:58;;;;;;;11.77;9.50;;;9.10;99.90;9.20;100346.00;;;;4953102;28;88305;-74
2022/06/01 04:29:24;;;;;;;12.53;9.83;;;9.20;99.90;9.30;100346.00;;;;4968131;28;116091;-73
2022/06/01 04:32:06;;;;;;;13.03;10.13;;;9.30;99.90;9.40;100348.00;;;;4970365;28;116767;-74
2022/06/01 04:34:32;;;;;;;12.87;10.80;;;9.40;99.90;9.50;100345.00;;;;4954927;28;87844;-73
2022/06/01 04:36:57;;;;;;;15.27;11.17;;;9.50;99.90;9.70;100343.00;;;;4966456;28;87989;-73
2022/06/01 04:39:24;;;;;;;15.77;11.80;;;9.60;99.90;9.80;100344.00;;;;4957028;28;117996;-74
2022/06/01 04:41:50;;;;;;;13.70;11.27;;;9.70;99.90;9.90;100338.00;;;;4963516;28;87728;-73
2022/06/01 04:44:16;;;;;;;13.93;10.43;;;9.80;99.90;10.00;100337.00;;;;4936249;28;88211;-73
2022/06/01 04:46:42;;;;;;;15.80;10.97;;;10.00;99.90;10.10;100336.00;;;;4971289;28;87904;-73
2022/06/01 04:49:08;;;;;;;16.70;11.20;;;10.10;99.90;10.20;100339.00;;;;4928355;28;88981;-73
2022/06/01 04:51:35;;;;;;;15.67;11.60;;;10.20;99.90;10.30;100343.00;;;;4963584;28;87945;-71
2022/06/01 04:54:01;;;;;;;15.43;12.40;;;10.30;99.90;10.40;100353.00;;;;4966599;28;97601;-70
2022/06/01 04:56:27;;;;;;;14.87;10.27;;;10.40;99.90;10.60;100359.00;;;;4974918;28;89112;-69
2022/06/01 04:58:53;;;;;;;16.53;11.43;;;10.40;99.90;10.70;100347.00;;;;4938664;28;88195;-70
2022/06/01 05:01:19;;;;;;;14.87;10.63;;;10.60;99.90;10.80;100359.00;;;;4935528;28;106467;-72
2022/06/01 05:03:45;;;;;;;13.40;10.53;;;10.80;99.90;10.90;100358.00;;;;4955094;28;87659;-72
2022/06/01 05:06:11;;;;;;;16.90;10.90;;;10.80;99.90;11.00;100354.00;;;;4954015;28;108174;-71
2022/06/01 05:08:37;;;;;;;15.07;12.03;;;11.00;99.90;11.10;100360.00;;;;4953468;28;88649;-72
2022/06/01 05:11:03;;;;;;;13.90;11.27;;;11.10;99.90;11.30;100363.00;;;;4935991;28;88089;-71
2022/06/01 05:13:29;;;;;;;12.40;10.47;;;11.20;99.90;11.40;100357.00;;;;4953214;28;113518;-72
2022/06/01 05:16:01;;;;;;;14.77;12.03;;;11.40;99.90;11.60;100353.00;;;;4955268;28;87834;-72
2022/06/01 05:18:27;;;;;;;16.07;11.13;;;11.50;99.90;11.70;100365.00;;;;4955034;28;87886;-72
2022/06/01 05:20:54;;;;;;;21.53;12.27;;;11.40;99.90;11.80;100354.00;;;;4953754;28;88762;-72
2022/06/01 05:23:22;;;;;;;14.77;11.50;;;11.70;99.90;12.00;100362.00;;;;4954615;28;87783;-69
2022/06/01 05:25:51;;;;;;;14.97;10.87;;;11.90;99.90;12.10;100358.00;;;;4954391;28;87818;-70
2022/06/01 05:28:21;;;;;;;15.80;9.77;;;12.00;99.90;12.30;100356.00;;;;4954138;28;87910;-71
2022/06/01 05:30:47;;;;;;;13.90;11.17;;;12.20;99.90;12.40;100356.00;;;;4936469;28;87853;-71
2022/06/01 05:33:13;;;;;;;15.47;10.47;;;12.30;99.90;12.50;100341.00;;;;4954716;28;87717;-71
2022/06/01 05:35:39;;;;;;;14.53;10.90;;;12.40;99.90;12.60;100347.00;;;;4954823;28;88278;-73
2022/06/01 05:38:05;;;;;;;14.03;9.93;;;12.50;99.90;12.70;100347.00;;;;4931476;28;117239;-70
2022/06/01 05:40:34;;;;;;;10.63;9.47;;;12.60;99.90;12.80;100348.00;;;;4960530;28;114182;-70
2022/06/01 05:43:00;;;;;;;18.93;11.47;;;12.70;99.90;12.90;100357.00;;;;4954708;28;87869;-69
2022/06/01 05:45:26;;;;;;;13.17;10.70;;;12.80;99.90;13.10;100353.00;;;;4953248;28;88733;-69
2022/06/01 05:47:52;;;;;;;10.70;9.37;;;13.00;99.90;13.20;100351.00;;;;4934903;28;98175;-70
2022/06/01 05:50:18;;;;;;;12.23;10.10;;;13.10;99.90;13.30;100352.00;;;;4969820;28;95863;-69
2022/06/01 05:52:44;;;;;;;15.13;10.97;;;13.20;99.90;13.40;100362.00;;;;4954200;28;87774;-70
2022/06/01 05:55:12;;;;;;;12.37;9.53;;;13.30;99.90;13.50;100367.00;;;;4953482;28;109056;-71
2022/06/01 05:57:38;;;;;;;11.50;8.97;;;13.40;99.90;13.60;100365.00;;;;4935142;28;112122;-70
2022/06/01 06:00:09;;;;;;;14.63;8.83;;;13.50;99.90;13.70;100366.00;;;;4954492;28;107578;-72
2022/06/01 06:02:34;;;;;;;7.80;6.10;;;13.60;99.90;13.80;100368.00;;;;4955089;28;87006;-70
2022/06/01 06:05:00;;;;;;;11.63;7.37;;;13.70;99.90;13.90;100373.00;;;;4954178;28;110365;-69
2022/06/01 06:07:28;;;;;;;11.20;8.07;;;13.80;99.90;14.00;100383.00;;;;4952759;28;116785;-69
2022/06/01 06:09:54;;;;;;;8.77;6.93;;;13.90;99.90;14.00;100373.00;;;;4935699;28;101482;-69
2022/06/01 06:12:20;;;;;;;7.77;6.23;;;13.90;99.90;14.20;100373.00;;;;4935746;28;108426;-69
2022/06/01 06:14:45;;;;;;;7.80;6.07;;;14.00;99.90;14.20;100378.00;;;;4954924;28;87888;-71
2022/06/01 06:17:11;;;;;;;7.57;5.37;;;14.20;99.90;14.30;100377.00;;;;4951559;28;117764;-71
2022/06/01 06:19:38;;;;;;;6.87;5.13;;;14.20;99.90;14.30;100376.00;;;;4953945;28;117768;-69
2022/06/01 06:22:06;;;;;;;8.90;6.10;;;14.30;99.90;14.40;100376.00;;;;4954738;28;88166;-69
2022/06/01 06:24:33;;;;;;;8.50;5.70;;;14.30;99.90;14.50;100378.00;;;;4954548;28;88236;-69
2022/06/01 06:26:59;;;;;;;7.83;5.37;;;14.50;99.90;14.70;100382.00;;;;4954691;28;87778;-69
2022/06/01 06:29:24;;;;;;;6.27;4.70;;;14.60;99.90;14.90;100379.00;;;;4953746;28;116854;-69
2022/06/01 06:31:50;;;;;;;6.27;4.67;;;14.80;99.90;15.00;100372.00;;;;4953511;28;110506;-69
2022/06/01 06:34:17;;;;;;;5.20;4.20;;;14.90;99.90;15.20;100373.00;;;;4953754;28;108444;-68
2022/06/01 06:36:44;;;;;;;5.40;3.83;;;15.10;99.90;15.40;100370.00;;;;4954583;28;88578;-70
2022/06/01 06:39:10;;;;;;;7.50;4.30;;;15.30;99.90;15.50;100366.00;;;;4968468;28;87999;-68
2022/06/01 06:41:36;;;;;;;4.93;4.15;;;15.40;99.90;15.60;100361.00;;;;4954374;28;90534;-69
2022/06/01 06:44:02;;;;;;;3.80;3.20;;;15.50;99.90;15.70;100370.00;;;;4954079;28;100578;-71
2022/06/01 06:46:28;;;;;;;4.18;2.95;;;15.60;99.90;15.90;100378.00;;;;4953726;28;109270;-70
2022/06/01 06:48:54;;;;;;;4.68;3.85;;;15.70;99.90;16.00;100382.00;;;;4940541;28;88931;-70
2022/06/01 06:51:21;;;;;;;5.53;3.85;;;15.90;99.90;16.10;100393.00;;;;4972889;28;87288;-68
2022/06/01 06:53:47;;;;;;;4.20;3.80;;;16.00;99.90;16.30;100381.00;;;;4957840;28;87941;-69
2022/06/01 06:56:16;;;;;;;5.40;4.53;;;16.10;99.90;16.40;100386.00;;;;4957665;28;88724;-70
2022/06/01 06:58:42;;;;;;;3.95;3.47;;;16.20;99.90;16.50;100382.00;;;;4957056;28;106089;-68
2022/06/01 07:01:08;;;;;;;2.60;2.38;;;16.40;99.90;16.60;100391.00;;;;4958247;28;87999;-69
2022/06/01 07:03:34;;;;;;;4.72;2.72;;;16.50;99.90;16.70;100385.00;;;;4956364;28;109761;-68
2022/06/01 07:06:12;;;;;;;4.72;3.25;;;16.60;99.90;16.80;100383.00;;;;4957263;28;117291;-68
2022/06/01 07:08:45;;;;;;;3.15;2.63;;;16.70;99.90;17.00;100376.00;;;;4957275;28;89305;-68
2022/06/01 07:11:13;;;;;;;4.18;2.95;;;16.80;99.90;17.20;100369.00;;;;4956932;28;87624;-69
2022/06/01 07:13:39;;;;;;;5.00;3.28;;;17.00;99.90;17.30;100386.00;;;;4957358;28;87634;-68
2022/06/01 07:16:16;;;;;;;4.03;2.88;;;17.10;99.90;17.40;100387.00;;;;4957697;28;97031;-68
2022/06/01 07:18:48;;;;;;;3.42;2.30;;;17.20;99.90;17.50;100378.00;;;;4956002;28;108060;-69
2022/06/01 07:21:15;;;;;;;3.53;2.83;;;17.30;99.90;17.70;100391.00;;;;4957060;28;102433;-68
2022/06/01 07:23:41;;;;;;;2.63;2.42;;;17.50;99.90;17.90;100391.00;;;;4956161;28;103315;-68
2022/06/01 07:26:15;;;;;;;4.88;3.47;;;17.70;99.90;18.10;100387.00;;;;4971830;28;92580;-69
2022/06/01 07:28:41;;;;;;;2.83;2.05;;;17.90;99.90;18.30;100393.00;;;;4956450;28;87771;-67
2022/06/01 07:31:08;;;;;;;2.78;2.22;;;18.10;99.90;18.40;100384.00;;;;4956844;28;96972;-69
2022/06/01 07:33:35;;;;;;;3.65;2.22;;;18.20;99.90;18.50;100387.00;;;;4957073;28;87746;-67
2022/06/01 07:36:04;;;;;;;3.05;2.15;;;18.30;99.90;18.60;100385.00;;;;4957167;28;89043;-67
2022/06/01 07:44:49;;;;;;;3.05;1.90;;;18.80;99.80;19.40;100388.00;;;;4914460;28;87802;-67
2022/06/01 07:47:16;;;;;;;2.65;1.55;;;19.10;99.50;19.60;100385.00;;;;4897674;28;89656;-68
2022/06/01 07:49:47;;;;;;;2.55;1.80;;;19.40;98.70;19.90;100384.00;;;;4936147;28;88768;-69
2022/06/01 07:52:14;;;;;;;1.55;1.45;;;19.70;97.80;20.20;100388.00;;;;4957320;28;87813;-69
2022/06/01 07:54:42;;;;;;;2.72;2.20;;;19.90;97.60;20.50;100392.00;;;;4956722;28;88126;-69
2022/06/01 07:57:08;;;;;;;1.45;1.30;;;20.30;96.70;20.70;100393.00;;;;4956590;28;88316;-67
2022/06/01 07:59:34;;;;;;;2.85;2.00;;;20.50;94.20;20.80;100397.00;;;;4938265;28;88205;-67
2022/06/01 08:02:05;;;;;;;1.73;1.33;;;20.70;91.20;20.90;100390.00;;;;4956012;28;110023;-68
2022/06/01 08:04:31;;;;;;;1.35;1.10;;;20.70;91.40;21.00;100392.00;;;;4957172;28;88135;-67
2022/06/01 08:06:57;;;;;;;2.78;1.73;;;20.80;90.10;21.00;100392.00;;;;4956885;28;96109;-68
2022/06/01 08:09:23;;;;;;;1.67;1.27;;;20.90;90.10;21.10;100402.00;;;;4955300;28;117175;-68
2022/06/01 08:14:39;;;;;;;1.73;1.63;;;20.90;84.30;20.90;100401.00;;;;4929771;28;88892;-68
2022/06/01 08:17:05;;;;;;;1.10;1.00;;;20.90;82.10;20.90;100397.00;;;;4936251;28;117343;-67
2022/06/01 08:19:30;;;;;;;1.20;1.10;;;20.90;78.70;20.90;100400.00;;;;4956277;28;87799;-68
2022/06/01 08:21:56;;;;;;;0.98;0.85;;;20.90;76.90;21.00;100395.00;;;;4955490;28;110183;-67
2022/06/01 08:24:22;;;;;;;1.45;1.00;;;20.90;76.10;21.10;100400.00;;;;4956401;28;87832;-68
2022/06/01 08:26:48;;;;;;;2.03;1.70;;;20.90;77.30;21.30;100405.00;;;;4955567;28;89285;-68
2022/06/01 08:29:14;;;;;;;2.72;2.15;;;21.10;77.60;21.50;100399.00;;;;4954797;28;118289;-67
2022/06/01 08:31:39;;;;;;;3.15;1.88;;;21.30;76.10;21.40;100396.00;;;;4955614;28;110010;-68
2022/06/01 08:34:05;;;;;;;3.33;1.42;;;21.30;72.00;21.20;100404.00;;;;4955120;28;109956;-67
2022/06/01 08:36:32;;;;;;;2.55;1.73;;;21.20;73.00;21.20;100401.00;;;;4956956;28;88269;-68
2022/06/01 08:38:58;;;;;;;2.17;1.02;;;21.20;69.80;21.10;100405.00;;;;4955766;28;88767;-68
2022/06/01 08:41:35;;;;;;;2.08;1.25;;;20.80;71.20;21.20;100401.00;;;;4956391;28;87856;-68
2022/06/01 08:44:09;;;;;;;1.65;1.55;;;21.10;71.20;21.30;100393.00;;;;4970504;28;88031;-68
2022/06/01 08:46:35;;;;;;;0.85;0.82;;;21.10;69.30;21.30;100385.00;;;;4937858;28;105041;-67
2022/06/01 08:49:29;;;;;;;1.15;0.88;;;21.10;69.90;21.50;100391.00;;;;4956175;28;88958;-67
2022/06/01 08:51:55;;;;;;;1.33;0.98;;;21.30;70.50;21.80;100384.00;;;;4937597;28;97926;-68
2022/06/01 08:54:22;;;;;;;0.85;0.82;;;21.50;67.80;21.90;100391.00;;;;4936641;28;99891;-67
2022/06/01 08:57:04;;;;;;;1.33;0.80;;;21.70;66.70;22.10;100400.00;;;;4935681;28;117874;-68
2022/06/01 08:59:44;;;;;;;0.88;0.80;;;21.90;66.30;22.50;100405.00;;;;4969554;28;87947;-69
2022/06/01 09:02:25;;;;;;;1.00;0.90;;;22.20;66.00;22.80;100406.00;;;;4970095;28;89593;-68
2022/06/01 09:05:40;;;;;;;1.17;0.68;;;22.60;63.00;23.00;100412.00;;;;4955124;28;88794;-68
2022/06/01 09:08:26;;;;;;;1.35;1.00;;;22.70;60.30;23.10;100415.00;;;;4955433;28;87756;-67
2022/06/01 09:11:12;;;;;;;0.93;0.60;;;22.90;58.00;23.20;100421.00;;;;4954787;28;88400;-68
2022/06/01 09:14:17;;;;;;;0.32;0.32;;;23.00;57.10;23.20;100424.00;;;;4956114;28;92761;-67
2022/06/01 09:16:50;;;;;;;0.40;0.40;;;23.00;56.80;23.30;100424.00;;;;4931446;28;99200;-67
2022/06/01 09:19:23;;;;;;;0.47;0.47;;;23.10;55.90;23.20;100420.00;;;;4969593;28;87871;-68
2022/06/01 09:24:44;;;;;;;1.67;1.13;;;23.00;53.30;22.90;100429.00;;;;4955351;28;87101;-67
2022/06/01 09:27:13;;;;;;;3.40;0.95;;;22.80;53.30;22.70;100429.00;;;;4969407;28;108801;-68
2022/06/01 09:29:50;;;;;;;1.63;0.80;;;22.70;53.70;22.60;100437.00;;;;4936835;28;88068;-67
2022/06/01 09:32:34;;;;;;;0.80;0.70;;;22.50;53.70;22.40;100429.00;;;;4954267;28;88970;-66
2022/06/01 09:35:11;;;;;;;0.95;0.95;;;22.30;54.30;22.40;100437.00;;;;4920475;28;87884;-68
2022/06/01 09:37:45;;;;;;;0.80;0.43;;;22.20;55.20;22.40;100434.00;;;;4937351;28;87785;-68
2022/06/01 09:40:23;;;;;;;0.90;0.90;;;22.30;55.00;22.20;100438.00;;;;4969895;28;87839;-67
2022/06/01 09:42:52;;;;;;;1.00;0.55;;;22.10;53.00;22.00;100438.00;;;;4955085;28;87919;-68
2022/06/01 09:45:47;;;;;;;0.85;0.70;;;21.90;54.10;21.70;100457.00;;;;4937172;28;87766;-67
2022/06/01 09:48:27;;;;;;;1.08;0.68;;;21.70;55.10;21.50;100458.00;;;;4969601;28;87947;-67
2022/06/01 09:51:18;;;;;;;0.68;0.50;;;21.50;55.20;21.20;100462.00;;;;4937323;28;87553;-67
2022/06/01 09:53:52;;;;;;;0.98;0.88;;;21.20;55.30;21.10;100457.00;;;;4936686;28;87891;-67
2022/06/01 09:56:45;;;;;;;0.68;0.35;;;21.00;55.60;20.90;100452.00;;;;4936309;28;87846;-68
2022/06/01 10:08:18;;;;;;;0.65;0.47;;;20.20;56.60;20.10;100455.00;;;;4938322;28;87810;-68
2022/06/01 10:11:03;;;;;;;0.73;0.73;;;20.10;57.50;20.00;100474.00;;;;4955682;28;87889;-68
2022/06/01 10:13:47;;;;;;;1.23;0.98;;;19.90;58.70;19.80;100481.00;;;;4936605;28;87922;-67
2022/06/01 10:16:49;;;;;;;0.68;0.68;;;19.70;59.50;19.50;100478.00;;;;4954381;28;87943;-68
2022/06/01 10:19:21;;;;;;;0.80;0.80;;;19.50;61.20;19.00;100477.00;;;;4955222;28;86764;-67
2022/06/01 10:21:57;;;;;;;1.15;0.70;;;19.10;62.80;18.50;100474.00;;;;4935250;28;101474;-67
2022/06/01 10:24:53;;;;;;;0.77;0.75;;;18.70;63.70;18.20;100461.00;;;;4972585;28;95114;-68
2022/06/01 10:27:26;;;;;;;1.52;0.60;;;18.30;64.90;18.10;100466.00;;;;4971077;28;111649;-67
2022/06/01 10:30:19;;;;;;;0.40;0.40;;;18.10;65.40;17.90;100465.00;;;;4957892;28;102449;-67
2022/06/01 10:33:05;;;;;;;0.60;0.60;;;17.90;65.90;17.90;100454.00;;;;4939803;28;88023;-66
2022/06/01 10:35:57;;;;;;;0.47;0.45;;;17.90;66.60;18.00;100466.00;;;;4972160;28;110405;-67
2022/06/01 10:38:55;;;;;;;0.63;0.60;;;17.80;67.70;18.00;100460.00;;;;4972326;28;87769;-68
2022/06/01 10:41:39;;;;;;;1.80;1.23;;;17.90;69.40;18.00;100462.00;;;;4934914;28;92470;-67
2022/06/01 10:44:13;;;;;;;1.52;1.25;;;17.80;70.40;18.20;100445.00;;;;4940157;28;87824;-67
2022/06/01 10:47:05;;;;;;;1.20;1.00;;;17.90;72.40;18.60;100444.00;;;;4938589;28;103859;-68
2022/06/01 10:49:43;;;;;;;2.22;1.77;;;18.20;73.30;19.10;100440.00;;;;4972556;28;87594;-68
2022/06/01 10:52:40;;;;;;;9.38;1.60;;;18.60;73.70;19.60;100442.00;;;;4945611;28;87758;-67
2022/06/01 10:55:19;;;;;;;1.15;1.00;;;19.10;72.50;20.20;100445.00;;;;4938862;28;88799;-66
2022/06/01 10:57:48;;;;;;;0.65;0.65;;;19.60;71.60;20.60;100437.00;;;;4939037;28;87833;-67
2022/06/01 11:00:22;;;;;;;0.73;0.55;;;20.00;68.10;20.90;100431.00;;;;4938994;28;87895;-67
2022/06/01 11:03:25;;;;;;;0.88;0.70;;;20.40;66.30;21.20;100435.00;;;;4957752;28;87956;-67
2022/06/01 11:06:13;;;;;;;1.08;0.80;;;20.70;64.90;21.40;100436.00;;;;4971669;28;102351;-68
2022/06/01 11:09:13;;;;;;;0.70;0.70;;;20.90;63.80;21.50;100445.00;;;;4939054;28;105051;-67
2022/06/01 11:11:59;;;;;;;0.73;0.60;;;21.10;60.10;21.30;100455.00;;;;4937739;28;109964;-69
2022/06/01 11:14:52;;;;;;;0.50;0.40;;;21.10;58.00;20.80;100460.00;;;;4972257;28;101816;-67
2022/06/01 11:17:27;;;;;;;0.88;0.43;;;20.80;56.10;20.50;100434.00;;;;4938715;28;101222;-67
2022/06/01 11:20:57;;;;;;;1.05;0.57;;;20.50;57.60;20.20;100394.00;;;;4972402;28;108234;-67
2022/06/01 11:23:44;;;;;;;0.70;0.68;;;20.20;58.10;20.00;100409.00;;;;4895699;28;89016;-68
2022/06/01 11:26:47;;;;;;;0.60;0.55;;;19.90;58.10;19.90;100419.00;;;;4968078;28;87865;-67
2022/06/01 11:30:01;;;;;;;0.52;0.52;;;19.80;56.80;20.20;100412.00;;;;4971067;28;89150;-68
2022/06/01 11:33:15;;;;;;;1.60;0.70;;;19.70;57.00;20.70;100424.00;;;;4939658;28;88006;-67
2022/06/01 11:35:45;;;;;;;0.60;0.40;;;20.20;57.00;21.10;100420.00;;;;4939540;28;87798;-67
2022/06/01 11:38:26;;;;;;;0.80;0.52;;;20.70;55.30;21.30;100407.00;;;;4957272;28;87762;-68